Time;durP1;ratioP1;P1;durP2;ratioP2;P2;SDS_P1;SDS_P2;PMS_P1;PMS_P2;Temp;Humidity;BMP_temperature;BMP_pressure;BME280_temperature;BME280_humidity;BME280_pressure;Samples;Min_cycle;Max_cycle;Signal;HPM_P1;HPM_P2
2023/08/22 00:00:10;;;;;;;2.90;2.70;;;;;;;30.93;46.74;98918.19;2081873;28;20052;-49
2023/08/22 00:01:12;;;;;;;2.90;2.15;;;;;;;30.89;46.47;98912.41;2085488;28;20045;-52
2023/08/22 00:02:12;;;;;;;2.85;2.65;;;;;;;30.92;46.80;98911.91;2080906;28;20224;-49
2023/08/22 00:03:14;;;;;;;2.58;2.38;;;;;;;30.91;46.75;98912.16;2083555;28;20060;-53
2023/08/22 00:04:15;;;;;;;2.20;2.10;;;;;;;30.91;46.71;98904.75;2081206;28;20049;-53
2023/08/22 00:05:17;;;;;;;2.90;2.70;;;;;;;30.90;46.69;98905.88;2083531;28;20555;-52
2023/08/22 00:06:18;;;;;;;2.55;2.33;;;;;;;30.91;46.60;98912.97;2075940;28;20133;-49
2023/08/22 00:07:20;;;;;;;2.72;2.53;;;;;;;30.92;46.21;98917.38;2082057;28;20067;-51
2023/08/22 00:08:20;;;;;;;2.50;2.30;;;;;;;30.93;46.76;98909.97;2076874;28;20191;-51
2023/08/22 00:09:22;;;;;;;2.47;2.28;;;;;;;30.89;46.39;98906.94;2080191;28;20162;-53
2023/08/22 00:10:23;;;;;;;2.20;2.00;;;;;;;30.91;46.73;98903.94;2083060;28;20048;-53
2023/08/22 00:11:27;;;;;;;2.28;2.08;;;;;;;30.92;46.58;98909.16;2085605;28;20411;-56
2023/08/22 00:12:27;;;;;;;2.95;2.75;;;;;;;30.92;46.73;98911.91;2080853;28;20053;-52
2023/08/22 00:13:29;;;;;;;2.40;2.30;;;;;;;30.93;46.67;98904.50;2083120;28;20063;-54
2023/08/22 00:14:32;;;;;;;2.60;2.40;;;;;;;30.90;46.27;98908.59;2074982;28;20083;-50
2023/08/22 00:15:33;;;;;;;2.60;2.40;;;;;;;30.85;47.00;98905.88;2081669;28;20037;-51
2023/08/22 00:16:34;;;;;;;2.40;2.20;;;;;;;30.90;46.56;98903.13;2080455;28;20550;-54
2023/08/22 00:17:35;;;;;;;2.90;2.58;;;;;;;30.90;46.40;98911.34;2075324;28;20049;-49
2023/08/22 00:18:37;;;;;;;2.50;2.30;;;;;;;30.92;46.32;98902.84;2079852;28;20462;-51
2023/08/22 00:19:39;;;;;;;2.40;2.20;;;;;;;30.91;46.67;98898.47;2081817;28;20056;-52
2023/08/22 00:20:41;;;;;;;2.75;2.55;;;;;;;30.89;46.54;98904.22;2082213;28;20061;-53
2023/08/22 00:21:42;;;;;;;2.55;2.35;;;;;;;30.87;46.79;98902.84;2080842;28;20049;-53
2023/08/22 00:22:44;;;;;;;2.83;2.60;;;;;;;30.89;46.27;98898.72;2082671;28;20045;-49
2023/08/22 00:23:45;;;;;;;2.75;2.50;;;;;;;30.89;46.77;98903.38;2082934;28;20543;-51
2023/08/22 00:24:46;;;;;;;2.40;2.20;;;;;;;30.88;46.53;98905.31;2082235;28;20382;-55
2023/08/22 00:25:47;;;;;;;2.63;2.40;;;;;;;30.89;46.31;98911.59;2083115;28;20080;-53
2023/08/22 00:26:49;;;;;;;2.10;2.00;;;;;;;30.90;46.78;98902.31;2082934;28;20439;-52
2023/08/22 00:27:50;;;;;;;2.63;2.42;;;;;;;30.90;46.47;98902.31;2085565;28;20140;-53
2023/08/22 00:28:51;;;;;;;2.85;2.65;;;;;;;30.87;46.43;98905.59;2084496;28;20052;-52
2023/08/22 00:29:55;;;;;;;2.67;2.47;;;;;;;30.88;46.47;98904.50;2081850;28;20049;-53
2023/08/22 00:30:56;;;;;;;2.58;2.38;;;;;;;30.87;46.51;98902.84;2084740;28;20084;-51
2023/08/22 00:31:57;;;;;;;2.55;2.35;;;;;;;30.87;46.81;98895.47;2081265;28;21093;-50
2023/08/22 00:32:59;;;;;;;2.70;2.50;;;;;;;30.87;46.49;98895.47;2083301;28;20056;-53
2023/08/22 00:34:01;;;;;;;3.58;3.28;;;;;;;30.87;46.40;98900.94;2082005;28;20060;-53
2023/08/22 00:35:04;;;;;;;2.45;2.20;;;;;;;30.87;46.32;98898.22;2083091;28;20055;-50
2023/08/22 00:36:05;;;;;;;2.33;1.75;;;;;;;30.88;46.79;98899.03;2081869;28;20045;-51
2023/08/22 00:37:07;;;;;;;2.22;2.10;;;;;;;30.85;46.58;98897.66;2085085;28;20079;-54
2023/08/22 00:38:07;;;;;;;2.60;2.40;;;;;;;30.85;46.43;98900.41;2082696;28;20045;-52
2023/08/22 00:39:08;;;;;;;2.50;2.30;;;;;;;30.90;46.52;98894.09;2082387;28;20068;-50
2023/08/22 00:40:11;;;;;;;2.63;2.42;;;;;;;30.89;46.88;98896.00;2081200;28;20056;-53
2023/08/22 00:41:11;;;;;;;2.72;2.53;;;;;;;30.89;46.42;98896.00;2085442;28;20105;-50
2023/08/22 00:42:13;;;;;;;2.65;2.45;;;;;;;30.88;46.91;98893.53;2082520;28;20123;-49
2023/08/22 00:43:14;;;;;;;2.67;2.47;;;;;;;30.92;46.59;98895.47;2085359;28;20049;-51
2023/08/22 00:44:16;;;;;;;2.60;2.40;;;;;;;30.88;46.67;98896.28;2082738;28;20053;-53
2023/08/22 00:45:18;;;;;;;2.65;2.45;;;;;;;30.88;46.39;98896.28;2085373;28;20080;-49
2023/08/22 00:46:22;;;;;;;3.08;2.88;;;;;;;30.88;46.43;98897.09;2082117;28;20048;-53
2023/08/22 00:47:23;;;;;;;2.80;2.60;;;;;;;30.88;46.76;98899.03;2081972;28;20060;-52
2023/08/22 00:48:25;;;;;;;2.92;2.72;;;;;;;30.85;46.69;98892.19;2082344;28;20049;-54
2023/08/22 00:49:26;;;;;;;2.60;2.40;;;;;;;30.89;46.29;98897.91;2081867;28;20136;-50
2023/08/22 00:50:29;;;;;;;2.67;2.47;;;;;;;30.88;46.85;98896.28;2083665;28;20057;-53
2023/08/22 00:51:30;;;;;;;2.50;2.30;;;;;;;30.89;46.34;98896.00;2083588;28;20158;-51
2023/08/22 00:52:32;;;;;;;3.22;2.92;;;;;;;30.88;46.36;98897.09;2081421;28;20052;-49
2023/08/22 00:53:33;;;;;;;2.75;2.55;;;;;;;30.86;46.50;98896.56;2085204;28;20045;-50
2023/08/22 00:54:36;;;;;;;2.45;2.25;;;;;;;30.87;46.62;98898.22;2084634;28;20044;-49
2023/08/22 00:55:37;;;;;;;2.35;2.15;;;;;;;30.87;46.51;98898.22;2086303;28;20092;-49
2023/08/22 00:56:39;;;;;;;2.78;2.58;;;;;;;30.89;46.52;98898.72;2075314;28;20044;-52
2023/08/22 00:57:40;;;;;;;2.42;2.22;;;;;;;30.87;46.85;98889.16;2075666;28;20060;-55
2023/08/22 00:58:42;;;;;;;3.22;2.40;;;;;;;30.89;46.80;98895.19;2075108;28;20120;-49
2023/08/22 00:59:43;;;;;;;2.80;2.60;;;;;;;30.86;46.51;98891.06;2077521;28;20056;-51
2023/08/22 01:00:46;;;;;;;2.72;2.53;;;;;;;30.88;46.88;98891.63;2075353;28;20119;-56
2023/08/22 01:01:47;;;;;;;2.70;2.50;;;;;;;30.85;46.72;98894.91;2076108;28;20061;-53
2023/08/22 01:02:50;;;;;;;2.30;2.15;;;;;;;30.84;46.54;98897.94;2076200;28;20049;-53
2023/08/22 01:03:51;;;;;;;2.55;2.35;;;;;;;30.84;46.52;98882.34;2076578;28;20077;-54
2023/08/22 01:04:53;;;;;;;2.83;2.63;;;;;;;30.86;46.72;98893.00;2075594;28;20038;-51
2023/08/22 01:06:00;;;;;;;3.08;2.78;;;;;;;30.84;46.51;98898.78;2073181;28;20046;-50
2023/08/22 01:07:10;;;;;;;2.75;2.55;;;;;;;30.85;46.53;98896.84;2077375;28;20542;-50
2023/08/22 01:08:17;;;;;;;2.58;2.20;;;;;;;30.83;46.89;98888.09;2076480;28;20137;-49
2023/08/22 01:09:26;;;;;;;2.22;2.03;;;;;;;30.85;46.43;98888.63;2077868;28;20076;-52
2023/08/22 01:10:33;;;;;;;2.25;2.15;;;;;;;30.85;46.86;98881.22;2074378;28;20069;-49
2023/08/22 01:11:40;;;;;;;2.33;2.17;;;;;;;30.82;46.96;98883.72;2077140;28;20077;-54
2023/08/22 01:12:49;;;;;;;2.75;2.55;;;;;;;30.81;46.96;98888.34;2075982;28;20048;-53
2023/08/22 01:13:55;;;;;;;2.65;2.45;;;;;;;30.83;47.06;98891.63;2076615;28;20522;-50
2023/08/22 01:15:09;;;;;;;3.20;2.22;;;;;;;30.83;46.79;98885.34;2075033;28;20046;-53
2023/08/22 01:16:13;;;;;;;3.13;2.83;;;;;;;30.84;46.88;98878.75;2075742;28;20233;-50
2023/08/22 01:17:14;;;;;;;2.63;2.28;;;;;;;30.84;46.43;98886.97;2076834;28;20121;-50
2023/08/22 01:18:18;;;;;;;2.88;2.67;;;;;;;30.85;46.46;98877.69;2075051;28;20404;-53
2023/08/22 01:19:20;;;;;;;2.83;2.63;;;;;;;30.83;46.56;98885.34;2092026;28;20099;-50
2023/08/22 01:20:21;;;;;;;2.22;2.13;;;;;;;30.82;46.50;98891.94;2077851;28;20057;-52
2023/08/22 01:21:23;;;;;;;2.33;2.13;;;;;;;30.84;46.49;98885.06;2075913;28;20538;-51
2023/08/22 01:22:26;;;;;;;2.50;2.30;;;;;;;30.86;46.43;98888.34;2075809;28;20092;-50
2023/08/22 01:23:28;;;;;;;3.00;2.70;;;;;;;30.86;46.94;98880.13;2074327;28;20140;-52
2023/08/22 01:24:28;;;;;;;2.38;2.17;;;;;;;30.87;46.74;98881.78;2075198;28;20041;-50
2023/08/22 01:25:30;;;;;;;2.92;2.72;;;;;;;30.87;46.47;98880.94;2077033;28;20129;-53
2023/08/22 01:26:31;;;;;;;2.20;2.08;;;;;;;30.86;46.78;98876.56;2075914;28;20038;-53
2023/08/22 01:27:41;;;;;;;2.60;2.40;;;;;;;30.84;46.50;98876.03;2078500;28;20112;-53
2023/08/22 01:28:45;;;;;;;2.40;2.20;;;;;;;30.82;46.69;98880.97;2076902;28;20049;-54
2023/08/22 01:29:53;;;;;;;2.85;2.65;;;;;;;30.84;46.54;98876.03;2077112;28;20068;-54
2023/08/22 01:30:58;;;;;;;2.63;2.20;;;;;;;30.83;46.52;98877.13;2075847;28;20045;-55
2023/08/22 01:32:10;;;;;;;2.80;2.60;;;;;;;30.82;46.61;98873.56;2075720;28;20053;-52
2023/08/22 01:33:16;;;;;;;2.97;2.70;;;;;;;30.80;46.88;98878.50;2076419;28;20076;-53
2023/08/22 01:34:23;;;;;;;2.45;2.25;;;;;;;30.81;46.68;98871.91;2075666;28;20073;-52
2023/08/22 01:35:26;;;;;;;2.90;2.63;;;;;;;30.81;46.63;98882.06;2075957;28;20049;-53
2023/08/22 01:36:29;;;;;;;2.30;2.10;;;;;;;30.82;46.57;98870.84;2075186;28;20053;-50
2023/08/22 01:37:34;;;;;;;3.30;3.00;;;;;;;30.82;46.67;98876.31;2075056;28;21785;-55
2023/08/22 01:38:35;;;;;;;2.67;2.47;;;;;;;30.81;46.82;98874.66;2075627;28;20064;-53
2023/08/22 01:39:40;;;;;;;3.03;2.78;;;;;;;30.82;46.96;98872.75;2075600;28;20083;-50
2023/08/22 01:40:42;;;;;;;2.75;2.55;;;;;;;30.81;46.55;98868.38;2075607;28;20049;-52
2023/08/22 01:41:44;;;;;;;1.98;1.88;;;;;;;30.83;46.93;98875.19;2076079;28;20052;-52
2023/08/22 01:42:45;;;;;;;2.70;2.50;;;;;;;30.83;46.52;98877.13;2076950;28;20075;-53
2023/08/22 01:43:47;;;;;;;2.40;2.15;;;;;;;30.81;46.78;98871.91;2077320;28;20148;-54
2023/08/22 01:44:47;;;;;;;2.63;2.42;;;;;;;30.82;46.95;98872.75;2076326;28;20049;-52
2023/08/22 01:45:51;;;;;;;2.40;2.20;;;;;;;30.82;46.88;98870.03;2073962;28;20056;-53
2023/08/22 01:46:51;;;;;;;2.40;2.20;;;;;;;30.81;46.58;98873.84;2076641;28;20065;-52
2023/08/22 01:47:53;;;;;;;3.10;2.80;;;;;;;30.79;46.57;98876.03;2077906;28;20049;-54
2023/08/22 01:48:54;;;;;;;2.00;1.90;;;;;;;30.80;46.63;98878.50;2076660;28;20052;-53
2023/08/22 01:49:56;;;;;;;2.03;1.92;;;;;;;30.83;46.70;98883.41;2076777;28;20156;-52
2023/08/22 01:50:57;;;;;;;2.97;2.42;;;;;;;30.81;46.78;98874.66;2075457;28;20511;-53
2023/08/22 01:51:58;;;;;;;2.63;2.42;;;;;;;30.84;46.84;98881.50;2074904;28;20042;-53
2023/08/22 01:53:00;;;;;;;2.13;2.03;;;;;;;30.83;46.92;98872.47;2074712;28;20050;-53
2023/08/22 01:54:02;;;;;;;2.65;2.45;;;;;;;30.81;47.07;98871.91;2075361;28;20049;-54
2023/08/22 01:55:04;;;;;;;2.88;2.65;;;;;;;30.83;46.86;98874.38;2074293;28;20045;-52
2023/08/22 01:56:06;;;;;;;2.83;2.63;;;;;;;30.82;46.73;98868.09;2075601;28;20061;-51
2023/08/22 01:57:07;;;;;;;3.05;2.85;;;;;;;30.83;46.91;98869.72;2073137;28;20096;-53
2023/08/22 01:58:10;;;;;;;2.50;2.30;;;;;;;30.80;47.03;98873.03;2076747;28;20421;-51
2023/08/22 01:59:13;;;;;;;2.60;2.40;;;;;;;30.81;46.50;98869.19;2074395;28;20084;-53
2023/08/22 02:00:14;;;;;;;2.22;2.03;;;;;;;30.81;46.87;98871.91;2077901;28;20053;-53
2023/08/22 02:01:16;;;;;;;2.55;2.35;;;;;;;30.80;46.96;98870.28;2075672;28;20132;-52
2023/08/22 02:02:17;;;;;;;2.72;2.53;;;;;;;30.80;46.67;98867.53;2074099;28;21139;-52
2023/08/22 02:03:18;;;;;;;2.72;2.53;;;;;;;30.80;46.54;98873.03;2076382;28;20571;-52
2023/08/22 02:04:19;;;;;;;2.28;2.08;;;;;;;30.81;46.56;98873.84;2076372;28;20053;-53
2023/08/22 02:05:21;;;;;;;2.97;2.78;;;;;;;30.80;46.52;98864.81;2075407;28;20049;-54
2023/08/22 02:06:22;;;;;;;2.35;2.15;;;;;;;30.81;47.06;98869.19;2076229;28;20049;-53
2023/08/22 02:07:24;;;;;;;3.03;2.78;;;;;;;30.79;47.03;98868.63;2076181;28;20107;-49
2023/08/22 02:08:26;;;;;;;3.05;2.20;;;;;;;30.79;47.06;98870.56;2074958;28;20041;-50
2023/08/22 02:09:28;;;;;;;2.47;2.28;;;;;;;30.78;46.59;98864.22;2076767;28;20054;-49
2023/08/22 02:10:29;;;;;;;2.70;2.50;;;;;;;30.79;47.00;98865.88;2074457;28;20050;-52
2023/08/22 02:11:31;;;;;;;2.53;2.33;;;;;;;30.78;47.08;98866.97;2074260;28;20045;-51
2023/08/22 02:12:32;;;;;;;2.65;2.42;;;;;;;30.81;46.78;98866.44;2074609;28;20052;-53
2023/08/22 02:13:34;;;;;;;2.50;2.30;;;;;;;30.81;46.72;98865.63;2073635;28;20504;-50
2023/08/22 02:14:35;;;;;;;2.50;2.30;;;;;;;30.80;46.87;98859.34;2084565;28;20484;-49
2023/08/22 02:15:36;;;;;;;2.60;2.40;;;;;;;30.78;46.74;98864.22;2083960;28;20049;-51
2023/08/22 02:16:37;;;;;;;3.03;2.83;;;;;;;30.78;46.70;98864.22;2084199;28;20049;-51
2023/08/22 02:17:39;;;;;;;2.55;2.35;;;;;;;30.79;46.61;98857.69;2084474;28;20053;-50
2023/08/22 02:18:40;;;;;;;1.98;1.88;;;;;;;30.79;46.83;98863.16;2076868;28;20144;-54
2023/08/22 02:19:42;;;;;;;3.33;3.03;;;;;;;30.76;46.53;98858.22;2076448;28;20495;-49
2023/08/22 02:20:43;;;;;;;2.28;2.15;;;;;;;30.79;46.95;98854.94;2076850;28;20052;-50
2023/08/22 02:21:44;;;;;;;2.38;2.17;;;;;;;30.81;46.86;98860.97;2075057;28;20045;-50
2023/08/22 02:22:45;;;;;;;2.40;2.20;;;;;;;30.79;46.74;98860.41;2077344;28;20069;-49
2023/08/22 02:23:48;;;;;;;3.20;2.45;;;;;;;30.80;46.94;98862.06;2076148;28;20505;-54
2023/08/22 02:24:49;;;;;;;2.47;2.28;;;;;;;30.81;46.94;98858.22;2077010;28;20132;-51
2023/08/22 02:25:50;;;;;;;2.40;2.20;;;;;;;30.79;46.88;98867.81;2073361;28;20045;-49
2023/08/22 02:26:52;;;;;;;2.83;2.63;;;;;;;30.81;46.61;98865.63;2073918;28;20042;-49
2023/08/22 02:27:53;;;;;;;2.80;2.47;;;;;;;30.80;46.51;98859.34;2073299;28;20057;-53
2023/08/22 02:28:54;;;;;;;2.40;2.25;;;;;;;30.78;46.94;98860.69;2073503;28;20049;-49
2023/08/22 02:29:55;;;;;;;3.28;2.97;;;;;;;30.80;46.56;98862.06;2074624;28;20077;-49
2023/08/22 02:30:57;;;;;;;2.65;2.45;;;;;;;30.78;46.63;98861.50;2076826;28;20046;-50
2023/08/22 02:31:58;;;;;;;2.53;2.33;;;;;;;30.79;47.00;98863.16;2076602;28;20056;-49
2023/08/22 02:33:00;;;;;;;2.67;2.47;;;;;;;30.77;46.78;98868.06;2076654;28;20059;-52
2023/08/22 02:34:01;;;;;;;2.97;2.78;;;;;;;30.77;46.82;98864.53;2075704;28;20453;-50
2023/08/22 02:35:03;;;;;;;2.55;2.33;;;;;;;30.78;46.49;98864.22;2075190;28;20050;-54
2023/08/22 02:36:04;;;;;;;3.00;2.13;;;;;;;30.78;47.04;98864.22;2075288;28;20042;-53
2023/08/22 02:37:07;;;;;;;2.58;2.38;;;;;;;30.78;46.64;98861.50;2075663;28;20470;-50
2023/08/22 02:38:08;;;;;;;2.65;2.45;;;;;;;30.78;46.72;98866.16;2075425;28;20037;-49
2023/08/22 02:39:11;;;;;;;2.70;2.50;;;;;;;30.77;46.82;98862.59;2075202;28;20231;-51
2023/08/22 02:40:12;;;;;;;2.55;2.35;;;;;;;30.77;46.92;98862.59;2076606;28;20107;-51
2023/08/22 02:41:14;;;;;;;2.30;2.10;;;;;;;30.77;46.92;98868.06;2074381;28;20411;-54
2023/08/22 02:42:15;;;;;;;2.50;2.30;;;;;;;30.77;46.93;98867.25;2076886;28;20236;-52
2023/08/22 02:43:17;;;;;;;2.70;2.50;;;;;;;30.78;46.94;98864.22;2073003;28;20050;-51
2023/08/22 02:44:18;;;;;;;2.78;2.58;;;;;;;30.76;46.50;98862.88;2074324;28;20551;-49
2023/08/22 02:45:20;;;;;;;2.25;2.05;;;;;;;30.77;46.71;98865.34;2074434;28;20050;-54
2023/08/22 02:46:20;;;;;;;2.42;2.22;;;;;;;30.78;46.90;98868.88;2074543;28;20487;-49
2023/08/22 02:47:22;;;;;;;2.45;2.20;;;;;;;30.78;46.50;98869.69;2076543;28;20045;-53
2023/08/22 02:48:23;;;;;;;2.47;2.28;;;;;;;30.78;46.67;98864.22;2077094;28;20053;-52
2023/08/22 02:49:25;;;;;;;2.30;2.10;;;;;;;30.77;46.93;98864.53;2076106;28;20049;-51
2023/08/22 02:50:26;;;;;;;2.65;2.45;;;;;;;30.78;46.54;98864.22;2076563;28;20925;-54
2023/08/22 02:51:28;;;;;;;2.30;2.15;;;;;;;30.76;46.65;98858.22;2074623;28;21468;-49
2023/08/22 02:52:29;;;;;;;2.60;2.40;;;;;;;30.78;46.88;98861.50;2076940;28;20049;-49
2023/08/22 02:53:31;;;;;;;2.20;2.08;;;;;;;30.79;46.50;98862.34;2076241;28;20055;-56
2023/08/22 02:54:33;;;;;;;2.65;2.45;;;;;;;30.79;46.71;98862.34;2076340;28;20042;-51
2023/08/22 02:55:35;;;;;;;2.33;2.13;;;;;;;30.77;46.98;98864.53;2074593;28;20052;-53
2023/08/22 02:56:36;;;;;;;2.67;2.47;;;;;;;30.77;46.60;98878.22;2076528;28;20049;-51
2023/08/22 02:57:37;;;;;;;2.70;2.50;;;;;;;30.77;46.75;98868.06;2073911;28;20481;-52
2023/08/22 02:58:38;;;;;;;2.55;2.35;;;;;;;30.77;46.60;98873.56;2074781;28;20193;-54
2023/08/22 02:59:40;;;;;;;2.13;2.03;;;;;;;30.77;46.78;98873.56;2073551;28;20061;-50
2023/08/22 03:00:44;;;;;;;2.92;2.45;;;;;;;30.78;47.01;98864.22;2074102;28;20073;-50
2023/08/22 03:01:46;;;;;;;2.75;2.55;;;;;;;30.76;46.98;98874.66;2076757;28;20049;-49
2023/08/22 03:02:47;;;;;;;2.50;2.30;;;;;;;30.75;46.93;98855.75;2076755;28;20408;-54
2023/08/22 03:03:50;;;;;;;2.42;2.22;;;;;;;30.76;46.63;98863.72;2075726;28;20050;-53
2023/08/22 03:04:52;;;;;;;2.38;2.22;;;;;;;30.75;46.57;98855.75;2076412;28;20049;-53
2023/08/22 03:05:57;;;;;;;2.85;2.65;;;;;;;30.76;46.79;98862.88;2076004;28;20095;-49
2023/08/22 03:06:58;;;;;;;3.00;2.80;;;;;;;30.73;47.07;98854.13;2075667;28;20092;-50
2023/08/22 03:07:58;;;;;;;2.33;2.17;;;;;;;30.73;47.00;98859.59;2075252;28;20066;-54
2023/08/22 03:09:00;;;;;;;2.80;2.60;;;;;;;30.74;46.89;98857.69;2078665;28;20046;-49
2023/08/22 03:10:03;;;;;;;2.08;1.98;;;;;;;30.75;46.65;98859.31;2083584;28;20503;-49
2023/08/22 03:11:05;;;;;;;2.17;2.05;;;;;;;30.76;46.93;98858.22;2084738;28;20049;-49
2023/08/22 03:12:06;;;;;;;2.30;2.10;;;;;;;30.76;46.82;98857.38;2083458;28;20478;-49
2023/08/22 03:13:08;;;;;;;2.50;2.40;;;;;;;30.76;46.85;98855.50;2084445;28;20056;-54
2023/08/22 03:14:09;;;;;;;2.67;2.47;;;;;;;30.76;47.02;98858.22;2082962;28;20590;-51
2023/08/22 03:15:11;;;;;;;3.95;2.97;;;;;;;30.77;46.64;98857.13;2081788;28;20056;-53
2023/08/22 03:16:12;;;;;;;2.63;2.22;;;;;;;30.75;46.90;98861.25;2076585;28;20115;-51
2023/08/22 03:17:14;;;;;;;2.75;2.55;;;;;;;30.74;46.68;98860.41;2077075;28;20561;-55
2023/08/22 03:18:15;;;;;;;2.55;2.35;;;;;;;30.75;46.97;98855.75;2074663;28;20073;-52
2023/08/22 03:19:17;;;;;;;2.10;2.00;;;;;;;30.74;46.83;98854.94;2076415;28;20588;-51
2023/08/22 03:20:18;;;;;;;2.97;2.78;;;;;;;30.74;46.97;98854.94;2077583;28;20392;-53
2023/08/22 03:21:19;;;;;;;2.55;2.35;;;;;;;30.76;46.88;98855.50;2077163;28;20049;-51
2023/08/22 03:22:20;;;;;;;2.22;2.03;;;;;;;30.75;46.99;98859.31;2076309;28;20041;-49
2023/08/22 03:23:22;;;;;;;3.03;2.83;;;;;;;30.75;46.56;98856.56;2076051;28;20037;-50
2023/08/22 03:24:23;;;;;;;2.25;2.05;;;;;;;30.74;46.90;98854.94;2074710;28;20076;-50
2023/08/22 03:25:26;;;;;;;2.78;2.58;;;;;;;30.75;46.93;98859.31;2075122;28;20042;-51
2023/08/22 03:26:27;;;;;;;2.67;2.47;;;;;;;30.75;47.05;98856.56;2074717;28;20049;-49
2023/08/22 03:27:29;;;;;;;2.92;2.70;;;;;;;30.73;46.80;98853.31;2076119;28;20499;-52
2023/08/22 03:28:31;;;;;;;2.63;2.42;;;;;;;30.74;46.63;98852.22;2076149;28;20591;-51
2023/08/22 03:29:33;;;;;;;2.83;2.63;;;;;;;30.72;46.88;98852.47;2074103;28;20049;-52
2023/08/22 03:30:34;;;;;;;3.30;3.00;;;;;;;30.72;46.77;98852.47;2076682;28;20103;-49
2023/08/22 03:31:36;;;;;;;2.58;2.38;;;;;;;30.72;46.82;98849.72;2075012;28;20489;-51
2023/08/22 03:32:37;;;;;;;2.60;2.40;;;;;;;30.73;47.07;98851.41;2074165;28;20415;-49
2023/08/22 03:33:39;;;;;;;2.60;2.35;;;;;;;30.73;46.49;98850.59;2074506;28;20052;-51
2023/08/22 03:34:39;;;;;;;2.33;2.17;;;;;;;30.71;46.64;98850.84;2076230;28;20145;-49
2023/08/22 03:35:42;;;;;;;2.40;2.30;;;;;;;30.72;46.79;98848.91;2073633;28;20052;-51
2023/08/22 03:36:43;;;;;;;3.00;2.80;;;;;;;30.73;47.00;98850.59;2075226;28;20041;-49
2023/08/22 03:37:45;;;;;;;2.63;2.42;;;;;;;30.73;46.64;98848.66;2075199;28;20519;-52
2023/08/22 03:38:50;;;;;;;2.50;2.40;;;;;;;30.73;46.97;98853.31;2075530;28;20700;-55
2023/08/22 03:39:52;;;;;;;2.60;2.40;;;;;;;30.72;46.60;98851.66;2075328;28;20056;-49
2023/08/22 03:40:56;;;;;;;2.65;2.45;;;;;;;30.73;47.05;98853.31;2076114;28;20042;-53
2023/08/22 03:41:58;;;;;;;2.90;2.60;;;;;;;30.75;47.04;98853.03;2074616;28;20041;-49
2023/08/22 03:42:58;;;;;;;2.35;2.20;;;;;;;30.73;47.09;98850.59;2076576;28;20049;-53
2023/08/22 03:44:00;;;;;;;3.20;2.10;;;;;;;30.73;46.96;98851.41;2076003;28;20041;-49
2023/08/22 03:45:01;;;;;;;2.83;2.63;;;;;;;30.71;47.04;98847.28;2077187;28;20049;-50
2023/08/22 03:46:03;;;;;;;2.67;2.47;;;;;;;30.71;47.18;98850.03;2075674;28;20116;-52
2023/08/22 03:47:04;;;;;;;2.35;2.15;;;;;;;30.70;46.68;98848.38;2075207;28;20476;-49
2023/08/22 03:48:07;;;;;;;2.53;2.42;;;;;;;30.72;46.99;98846.19;2076182;28;20049;-51
2023/08/22 03:49:08;;;;;;;2.40;2.20;;;;;;;30.72;46.54;98848.91;2076249;28;20056;-49
2023/08/22 03:50:10;;;;;;;3.30;2.42;;;;;;;30.72;46.71;98857.13;2073314;28;20064;-53
2023/08/22 03:51:11;;;;;;;2.50;2.30;;;;;;;30.71;46.70;98848.09;2076684;28;20555;-52
2023/08/22 03:52:13;;;;;;;2.50;2.30;;;;;;;30.73;46.65;98847.84;2075812;28;20053;-52
2023/08/22 03:53:15;;;;;;;2.42;2.22;;;;;;;30.72;46.58;98855.22;2078530;28;20088;-53
2023/08/22 03:54:17;;;;;;;2.20;2.10;;;;;;;30.71;46.80;98855.50;2073874;28;20399;-49
2023/08/22 03:55:18;;;;;;;3.60;2.40;;;;;;;30.71;46.95;98861.78;2080856;28;20056;-53
2023/08/22 03:56:21;;;;;;;2.45;2.25;;;;;;;30.70;46.67;98854.69;2074876;28;20053;-52
2023/08/22 03:57:22;;;;;;;2.78;2.58;;;;;;;30.70;46.67;98856.59;2076370;28;20073;-49
2023/08/22 03:58:24;;;;;;;2.42;2.22;;;;;;;30.70;46.80;98857.44;2075264;28;20060;-49
2023/08/22 03:59:25;;;;;;;2.35;2.15;;;;;;;30.71;46.61;98858.25;2074413;28;20397;-50
2023/08/22 04:00:27;;;;;;;3.50;3.22;;;;;;;30.71;46.74;98860.97;2073889;28;20059;-49
2023/08/22 04:01:28;;;;;;;2.33;2.17;;;;;;;30.70;46.61;98862.06;2072093;28;20136;-50
2023/08/22 04:02:29;;;;;;;2.50;2.30;;;;;;;30.70;46.90;98856.59;2072816;28;20048;-53
2023/08/22 04:03:31;;;;;;;2.65;2.45;;;;;;;30.71;46.66;98853.59;2074307;28;22225;-50
2023/08/22 04:04:33;;;;;;;2.45;2.28;;;;;;;30.70;46.53;98868.38;2081392;28;20051;-52
2023/08/22 04:05:33;;;;;;;2.30;2.17;;;;;;;30.70;46.59;98871.13;2082033;28;20452;-52
2023/08/22 04:06:35;;;;;;;2.97;2.65;;;;;;;30.70;46.60;98865.66;2083906;28;20052;-49
2023/08/22 04:07:36;;;;;;;2.40;2.30;;;;;;;30.72;46.98;98868.09;2082010;28;20049;-50
2023/08/22 04:08:37;;;;;;;2.17;2.05;;;;;;;30.71;47.07;98866.47;2084110;28;20059;-49
2023/08/22 04:09:39;;;;;;;2.38;2.28;;;;;;;30.70;46.81;98871.13;2081393;28;20041;-51
2023/08/22 04:10:40;;;;;;;2.00;1.90;;;;;;;30.70;46.80;98875.75;2075549;28;21049;-51
2023/08/22 04:11:44;;;;;;;2.60;2.40;;;;;;;30.71;46.75;98871.94;2081844;28;20064;-50
2023/08/22 04:12:46;;;;;;;2.60;2.33;;;;;;;30.70;46.69;98870.28;2084570;28;20036;-51
2023/08/22 04:13:47;;;;;;;2.97;2.70;;;;;;;30.71;46.81;98866.47;2080767;28;20049;-49
2023/08/22 04:14:48;;;;;;;2.47;2.30;;;;;;;30.70;46.83;98871.13;2082981;28;20055;-52
2023/08/22 04:15:51;;;;;;;2.72;2.53;;;;;;;30.70;47.01;98875.75;2080832;28;20430;-51
2023/08/22 04:16:52;;;;;;;2.25;2.05;;;;;;;30.70;46.93;98881.22;2083224;28;21669;-54
2023/08/22 04:17:54;;;;;;;3.33;3.03;;;;;;;30.70;46.73;98873.00;2082132;28;20045;-49
2023/08/22 04:18:54;;;;;;;2.85;2.63;;;;;;;30.69;46.57;98874.94;2084319;28;20132;-51
2023/08/22 04:19:56;;;;;;;2.63;2.42;;;;;;;30.69;47.17;98869.47;2081749;28;20419;-51
2023/08/22 04:20:57;;;;;;;2.88;2.67;;;;;;;30.70;46.85;98873.84;2083785;28;20056;-52
2023/08/22 04:21:59;;;;;;;2.40;2.20;;;;;;;30.71;46.89;98877.41;2080033;28;20049;-49
2023/08/22 04:23:00;;;;;;;2.38;2.17;;;;;;;30.69;46.67;98874.94;2084670;28;20071;-49
2023/08/22 04:24:02;;;;;;;2.33;2.15;;;;;;;30.70;46.67;98876.59;2079880;28;20041;-52
2023/08/22 04:25:04;;;;;;;2.85;2.45;;;;;;;30.68;46.77;98877.97;2079853;28;20037;-52
2023/08/22 04:26:06;;;;;;;2.63;2.42;;;;;;;30.70;46.75;98879.34;2072647;28;20065;-50
2023/08/22 04:27:08;;;;;;;2.55;2.35;;;;;;;30.71;47.10;98878.22;2075855;28;20216;-53
2023/08/22 04:28:10;;;;;;;3.08;2.88;;;;;;;30.72;46.67;98879.03;2073474;28;20531;-50
2023/08/22 04:29:10;;;;;;;2.78;2.58;;;;;;;30.70;46.58;98875.75;2078432;28;20065;-53
2023/08/22 04:30:12;;;;;;;2.22;2.03;;;;;;;30.70;46.95;98875.75;2076149;28;20049;-49
2023/08/22 04:31:13;;;;;;;2.50;2.30;;;;;;;30.69;46.94;98877.69;2076980;28;20065;-51
2023/08/22 04:32:15;;;;;;;2.20;2.00;;;;;;;30.71;46.65;98882.88;2075418;28;20060;-51
2023/08/22 04:33:16;;;;;;;2.45;2.25;;;;;;;30.69;46.99;98880.41;2077415;28;20052;-50
2023/08/22 04:34:18;;;;;;;2.75;2.55;;;;;;;30.69;46.86;98885.06;2074984;28;20504;-53
2023/08/22 04:35:18;;;;;;;2.60;2.40;;;;;;;30.69;47.10;98879.59;2075886;28;20077;-50
2023/08/22 04:36:20;;;;;;;2.65;2.45;;;;;;;30.70;46.69;98870.28;2073675;28;20423;-53
2023/08/22 04:37:21;;;;;;;1.75;1.65;;;;;;;30.69;46.94;98874.13;2080707;28;20069;-52
2023/08/22 04:38:23;;;;;;;2.40;2.20;;;;;;;30.68;46.65;98873.31;2075292;28;20057;-52
2023/08/22 04:39:24;;;;;;;2.80;2.60;;;;;;;30.69;46.90;98876.84;2078738;28;20092;-49
2023/08/22 04:40:26;;;;;;;2.40;2.20;;;;;;;30.70;47.13;98876.59;2075453;28;20045;-53
2023/08/22 04:41:28;;;;;;;1.92;1.83;;;;;;;30.69;47.02;98874.94;2077347;28;20045;-49
2023/08/22 04:42:31;;;;;;;2.70;2.50;;;;;;;30.70;46.88;98881.22;2074544;28;20042;-50
2023/08/22 04:43:32;;;;;;;2.47;2.00;;;;;;;30.69;47.02;98874.94;2075183;28;20077;-53
2023/08/22 04:44:33;;;;;;;2.60;2.40;;;;;;;30.69;47.08;98874.94;2075927;28;20053;-50
2023/08/22 04:45:35;;;;;;;2.28;2.10;;;;;;;30.69;46.53;98880.41;2075319;28;20087;-52
2023/08/22 04:46:36;;;;;;;2.78;2.58;;;;;;;30.70;46.96;98873.00;2077675;28;20081;-53
2023/08/22 04:47:37;;;;;;;2.40;2.20;;;;;;;30.70;46.86;98875.75;2074284;28;20049;-52
2023/08/22 04:48:39;;;;;;;2.33;2.13;;;;;;;30.69;46.82;98876.84;2077655;28;20037;-49
2023/08/22 04:49:40;;;;;;;2.60;2.38;;;;;;;30.69;46.61;98880.41;2075236;28;20069;-50
2023/08/22 04:50:42;;;;;;;2.65;2.45;;;;;;;30.69;46.74;98876.84;2077910;28;20050;-53
2023/08/22 04:51:42;;;;;;;2.72;2.53;;;;;;;30.69;47.17;98887.81;2073498;28;20050;-51